createdAt,value
2018-08-22T00:00:39.572Z,71.21
2018-08-22T00:03:10.730Z,71.77
2018-08-22T00:05:46.830Z,71.75
2018-08-22T00:08:38.023Z,71.69
2018-08-22T00:11:09.156Z,71.77
2018-08-22T00:13:38.105Z,71.96
2018-08-22T00:16:07.047Z,72.20
2018-08-22T00:18:36.050Z,72.20
2018-08-22T00:21:05.068Z,72.24
2018-08-22T00:23:36.366Z,72.30
2018-08-22T00:26:08.235Z,72.46
2018-08-22T00:28:37.084Z,72.51
2018-08-22T00:31:06.125Z,72.73
2018-08-22T00:33:35.198Z,72.62
2018-08-22T00:36:06.737Z,72.37
2018-08-22T00:38:35.778Z,72.43
2018-08-22T00:41:04.675Z,72.27
2018-08-22T00:43:35.783Z,72.51
2018-08-22T00:46:02.563Z,72.55
2018-08-22T00:48:33.561Z,72.70
2018-08-22T00:51:05.073Z,72.73
2018-08-22T00:53:36.219Z,72.81
2018-08-22T00:56:05.151Z,72.81
2018-08-22T00:58:34.045Z,73.17
2018-08-22T01:01:02.977Z,73.20
2018-08-22T01:03:33.803Z,73.20
2018-08-22T01:06:02.671Z,73.09
2018-08-22T01:08:33.751Z,72.98
2018-08-22T01:11:04.415Z,72.97
2018-08-22T01:13:35.600Z,71.67
2018-08-22T01:16:04.557Z,72.87
2018-08-22T01:18:33.561Z,72.89
2018-08-22T01:21:02.405Z,72.86
2018-08-22T01:23:32.989Z,71.58
2018-08-22T01:26:01.895Z,72.58
2018-08-22T01:28:33.201Z,72.65
2018-08-22T01:31:02.148Z,72.72
2018-08-22T01:33:33.706Z,72.69
2018-08-22T01:36:02.586Z,72.90
2018-08-22T01:38:31.506Z,73.04
2018-08-22T01:41:00.559Z,73.18
2018-08-22T01:43:29.464Z,73.26
2018-08-22T01:45:58.338Z,73.38
2018-08-22T01:48:27.345Z,73.48
2018-08-22T01:50:56.383Z,73.67
2018-08-22T01:53:25.273Z,73.71
2018-08-22T01:55:54.193Z,73.67
2018-08-22T01:58:23.065Z,73.72
2018-08-22T02:00:51.974Z,73.71
2018-08-22T02:03:20.910Z,73.78
2018-08-22T02:05:52.310Z,73.81
2018-08-22T02:08:21.213Z,73.62
2018-08-22T02:10:50.113Z,72.09
2018-08-22T02:13:18.986Z,73.02
2018-08-22T02:15:48.035Z,73.42
2018-08-22T02:18:16.919Z,73.56
2018-08-22T02:20:47.553Z,72.52
2018-08-22T02:23:14.873Z,73.48
2018-08-22T02:25:43.708Z,73.40
2018-08-22T02:28:12.673Z,73.55
2018-08-22T02:30:41.523Z,73.60
2018-08-22T02:33:10.467Z,73.67
2018-08-22T02:35:39.403Z,73.98
2018-08-22T02:38:08.317Z,73.89
2018-08-22T02:40:37.215Z,74.02
2018-08-22T02:43:06.123Z,74.02
2018-08-22T02:45:35.067Z,73.83
2018-08-22T02:48:03.991Z,73.67
2018-08-22T02:50:32.904Z,73.62
2018-08-22T02:53:01.768Z,73.90
2018-08-22T02:55:30.710Z,74.05
2018-08-22T02:57:59.702Z,73.87
2018-08-22T03:00:28.530Z,73.18
2018-08-22T03:02:57.415Z,72.32
2018-08-22T03:05:26.294Z,73.45
2018-08-22T03:07:57.740Z,73.46
2018-08-22T03:10:26.821Z,74.01
2018-08-22T03:12:55.782Z,74.38
2018-08-22T03:15:24.619Z,74.32
2018-08-22T03:17:53.479Z,74.15
2018-08-22T03:20:22.417Z,74.17
2018-08-22T03:22:51.282Z,72.98
2018-08-22T03:25:20.256Z,74.11
2018-08-22T03:27:49.222Z,74.33
2018-08-22T03:30:18.066Z,74.34
2018-08-22T03:32:46.943Z,74.40
2018-08-22T03:35:15.915Z,74.29
2018-08-22T03:37:44.735Z,74.07
2018-08-22T03:40:13.649Z,74.09
2018-08-22T03:42:44.639Z,74.40
2018-08-22T03:45:11.443Z,74.23
2018-08-22T03:47:40.392Z,74.47
2018-08-22T03:50:09.391Z,74.81
2018-08-22T03:52:38.605Z,74.95
2018-08-22T03:55:07.497Z,74.78
2018-08-22T03:57:36.468Z,74.67
2018-08-22T04:00:07.261Z,74.79
2018-08-22T04:02:34.624Z,74.58
2018-08-22T04:05:05.917Z,74.39
2018-08-22T04:07:34.929Z,74.40
2018-08-22T04:10:03.798Z,74.36
2018-08-22T04:12:35.457Z,74.04
2018-08-22T04:15:04.398Z,74.04
2018-08-22T04:17:42.203Z,74.21
2018-08-22T04:20:11.078Z,74.43
2018-08-22T04:22:40.800Z,74.48
2018-08-22T04:25:10.034Z,74.51
2018-08-22T04:27:39.058Z,74.79
2018-08-22T04:30:10.494Z,75.05
2018-08-22T04:32:41.099Z,75.24
2018-08-22T04:35:09.918Z,75.10
2018-08-22T04:37:41.478Z,74.82
2018-08-22T04:40:19.371Z,74.67
2018-08-22T04:42:51.286Z,74.89
2018-08-22T04:45:24.994Z,75.14
2018-08-22T04:47:51.975Z,75.15
2018-08-22T04:50:20.954Z,74.82
2018-08-22T04:52:51.705Z,75.09
2018-08-22T04:55:22.980Z,74.96
2018-08-22T04:57:54.699Z,75.20
2018-08-22T05:00:23.642Z,75.16
2018-08-22T05:02:54.229Z,75.44
2018-08-22T05:05:23.243Z,75.50
2018-08-22T05:07:52.186Z,75.41
2018-08-22T05:10:21.154Z,75.29
2018-08-22T05:12:55.845Z,75.41
2018-08-22T05:15:24.796Z,75.34
2018-08-22T05:17:53.711Z,75.45
2018-08-22T05:20:22.620Z,75.62
2018-08-22T05:22:54.662Z,75.54
2018-08-22T05:25:23.656Z,75.52
2018-08-22T05:27:55.082Z,74.30
2018-08-22T05:30:25.818Z,75.12
2018-08-22T05:32:54.788Z,75.26
2018-08-22T05:35:29.333Z,75.09
2018-08-22T05:37:58.260Z,75.04
2018-08-22T05:40:27.160Z,74.62
2018-08-22T05:42:56.117Z,74.46
2018-08-22T05:45:25.024Z,74.28
2018-08-22T05:47:53.903Z,74.36
2018-08-22T05:50:22.828Z,74.34
2018-08-22T05:52:51.715Z,73.40
2018-08-22T05:55:20.686Z,74.25
2018-08-22T05:57:49.622Z,74.17
2018-08-22T06:00:18.522Z,74.18
2018-08-22T06:02:47.457Z,73.94
2018-08-22T06:05:16.480Z,73.75
2018-08-22T06:07:48.379Z,73.44
2018-08-22T06:10:14.382Z,73.19
2018-08-22T06:12:43.302Z,72.98
2018-08-22T06:15:14.571Z,72.84
2018-08-22T06:17:43.505Z,72.80
2018-08-22T06:20:12.453Z,72.77
2018-08-22T06:22:41.409Z,72.79
2018-08-22T06:25:12.941Z,72.56
2018-08-22T06:27:41.746Z,72.19
2018-08-22T06:30:11.502Z,71.27
2018-08-22T06:32:40.445Z,70.07
2018-08-22T06:35:11.283Z,67.84
2018-08-22T06:37:40.231Z,67.49
2018-08-22T06:40:09.165Z,67.18
2018-08-22T06:42:38.073Z,67.08
2018-08-22T06:45:09.457Z,66.66
2018-08-22T06:47:36.610Z,65.94
2018-08-22T06:50:05.687Z,63.85
2018-08-22T06:52:34.570Z,64.50
2018-08-22T06:55:03.447Z,64.16
2018-08-22T06:57:32.405Z,64.10
2018-08-22T07:00:01.293Z,64.14
2018-08-22T07:02:30.218Z,64.07
2018-08-22T07:04:59.236Z,63.77
2018-08-22T07:07:28.146Z,63.20
2018-08-22T07:09:57.000Z,61.59
2018-08-22T07:12:25.864Z,59.24
2018-08-22T07:14:54.737Z,57.25
2018-08-22T07:17:23.684Z,56.62
2018-08-22T07:19:52.484Z,55.35
2018-08-22T07:22:21.385Z,51.98
2018-08-22T07:24:50.297Z,48.72
2018-08-22T07:27:19.085Z,45.67
2018-08-22T07:29:47.992Z,44.52
2018-08-22T07:32:16.876Z,45.45
2018-08-22T07:34:45.846Z,47.16
2018-08-22T07:37:15.012Z,48.10
2018-08-22T07:39:51.057Z,48.87
2018-08-22T07:42:20.012Z,47.39
2018-08-22T07:44:50.541Z,44.17
2018-08-22T07:47:19.398Z,41.25
2018-08-22T07:49:49.609Z,39.13
2018-08-22T07:52:21.331Z,37.38
2018-08-22T07:54:50.294Z,35.59
2018-08-22T07:57:23.356Z,34.15
2018-08-22T07:59:55.253Z,32.83
2018-08-22T08:02:24.239Z,31.86
2018-08-22T08:04:53.177Z,31.93
2018-08-22T08:07:22.021Z,30.92
2018-08-22T08:09:50.947Z,30.79
2018-08-22T08:12:23.671Z,30.53
2018-08-22T08:15:05.026Z,29.73
2018-08-22T08:17:33.977Z,29.38
2018-08-22T08:20:03.758Z,27.70
2018-08-22T08:22:32.693Z,27.87
2018-08-22T08:25:01.603Z,28.12
2018-08-22T08:27:30.488Z,27.63
2018-08-22T08:29:59.422Z,27.95
2018-08-22T08:32:28.369Z,27.07
2018-08-22T08:34:57.372Z,27.69
2018-08-22T08:37:26.267Z,26.66
2018-08-22T08:39:58.092Z,27.25
2018-08-22T08:42:26.969Z,26.95
2018-08-22T08:44:55.901Z,25.49
2018-08-22T08:47:27.709Z,26.73
2018-08-22T08:49:53.988Z,26.91
2018-08-22T08:52:22.925Z,26.08
2018-08-22T08:54:53.022Z,26.45
2018-08-22T08:57:21.980Z,26.27
2018-08-22T08:59:50.857Z,25.63
2018-08-22T09:02:19.785Z,25.47
2018-08-22T09:04:48.686Z,25.27
2018-08-22T09:07:17.700Z,25.18
2018-08-22T09:09:46.621Z,24.93
2018-08-22T09:12:15.541Z,25.63
2018-08-22T09:14:44.529Z,24.19
2018-08-22T09:17:14.468Z,24.80
2018-08-22T09:19:43.707Z,25.06
2018-08-22T09:22:13.769Z,24.58
2018-08-22T09:24:45.373Z,25.15
2018-08-22T09:27:14.232Z,25.14
2018-08-22T09:29:48.053Z,25.52
2018-08-22T09:32:12.001Z,25.18
2018-08-22T09:34:40.909Z,24.94
2018-08-22T09:37:09.834Z,24.97
2018-08-22T09:39:38.802Z,25.23
2018-08-22T09:42:07.653Z,25.00
2018-08-22T09:44:36.616Z,25.00
2018-08-22T09:47:12.173Z,24.91
2018-08-22T09:49:41.836Z,24.07
2018-08-22T09:52:11.137Z,24.62
2018-08-22T09:55:03.515Z,24.78
2018-08-22T09:57:32.538Z,25.23
2018-08-22T10:00:01.461Z,24.71
2018-08-22T10:02:30.313Z,25.13
2018-08-22T10:04:59.597Z,24.19
2018-08-22T10:07:28.574Z,24.65
2018-08-22T10:09:57.488Z,25.04
2018-08-22T10:12:26.385Z,24.40
2018-08-22T10:14:55.369Z,23.33
2018-08-22T10:17:24.373Z,23.59
2018-08-22T10:19:53.070Z,23.94
2018-08-22T10:22:21.984Z,24.79
2018-08-22T10:24:50.918Z,26.22
2018-08-22T10:27:19.745Z,25.30
2018-08-22T10:29:48.766Z,24.86
2018-08-22T10:32:17.648Z,25.26
2018-08-22T10:34:46.557Z,25.69
2018-08-22T10:37:15.799Z,25.20
2018-08-22T10:39:44.771Z,25.97
2018-08-22T10:42:13.536Z,26.84
2018-08-22T10:44:45.544Z,25.66
2018-08-22T10:47:14.448Z,28.54
2018-08-22T10:49:43.394Z,27.77
2018-08-22T10:52:12.408Z,27.04
2018-08-22T10:54:41.254Z,28.41
2018-08-22T10:57:10.138Z,27.39
2018-08-22T10:59:39.035Z,27.05
2018-08-22T11:02:07.902Z,29.23
2018-08-22T11:04:36.796Z,30.04
2018-08-22T11:07:05.757Z,29.48
2018-08-22T11:09:34.670Z,28.91
2018-08-22T11:12:03.638Z,27.75
2018-08-22T11:14:32.498Z,26.46
2018-08-22T11:17:01.417Z,27.26
2018-08-22T11:19:30.294Z,26.15
2018-08-22T11:22:35.713Z,23.47
2018-08-22T11:25:40.963Z,25.57
2018-08-22T11:28:46.635Z,25.87
2018-08-22T11:31:52.339Z,27.76
2018-08-22T11:34:46.409Z,29.68
2018-08-22T11:37:16.263Z,30.92
2018-08-22T11:39:46.417Z,31.28
2018-08-22T11:42:15.413Z,32.14
2018-08-22T11:44:44.364Z,32.51
2018-08-22T11:47:13.243Z,33.37
2018-08-22T11:49:42.209Z,34.61
2018-08-22T11:52:10.990Z,35.19
2018-08-22T11:54:39.951Z,35.00
2018-08-22T11:57:08.867Z,36.02
2018-08-22T11:59:37.707Z,36.26
2018-08-22T12:02:06.585Z,35.41
2018-08-22T12:04:35.524Z,35.85
2018-08-22T12:07:04.325Z,35.87
2018-08-22T12:09:33.184Z,36.43
2018-08-22T12:12:02.077Z,36.76
2018-08-22T12:14:33.417Z,37.72
2018-08-22T12:17:02.358Z,38.21
2018-08-22T12:19:31.242Z,37.48
2018-08-22T12:22:00.126Z,38.46
2018-08-22T12:24:29.038Z,38.56
2018-08-22T12:26:57.981Z,37.72
2018-08-22T12:29:26.876Z,38.53
2018-08-22T12:31:55.918Z,38.46
2018-08-22T12:34:24.646Z,37.96
2018-08-22T12:36:53.526Z,38.53
2018-08-22T12:39:22.395Z,37.96
2018-08-22T12:41:51.322Z,37.09
2018-08-22T12:44:20.268Z,37.88
2018-08-22T12:46:49.084Z,38.42
2018-08-22T12:49:18.004Z,38.58
2018-08-22T12:51:48.314Z,38.27
2018-08-22T12:54:15.770Z,38.31
2018-08-22T12:56:44.726Z,37.89
2018-08-22T12:59:13.662Z,38.07
2018-08-22T13:01:42.545Z,37.92
2018-08-22T13:04:13.671Z,38.88
2018-08-22T13:06:42.627Z,38.97
2018-08-22T13:09:11.992Z,39.35
2018-08-22T13:11:41.213Z,39.73
2018-08-22T13:14:10.173Z,39.85
2018-08-22T13:16:39.054Z,40.03
2018-08-22T13:19:07.983Z,40.14
2018-08-22T13:21:36.880Z,39.59
2018-08-22T13:24:05.769Z,39.45
2018-08-22T13:26:34.724Z,38.65
2018-08-22T13:29:05.152Z,38.65
2018-08-22T13:31:32.632Z,38.16
2018-08-22T13:34:01.611Z,37.86
2018-08-22T13:36:30.494Z,37.88
2018-08-22T13:38:59.481Z,37.41
2018-08-22T13:41:28.263Z,37.49
2018-08-22T13:43:57.161Z,37.22
2018-08-22T13:46:26.046Z,37.64
2018-08-22T13:48:55.027Z,37.63
2018-08-22T13:51:23.940Z,37.37
2018-08-22T13:53:52.820Z,37.10
2018-08-22T13:56:21.863Z,38.08
2018-08-22T13:58:50.972Z,39.34
2018-08-22T14:01:19.862Z,39.53
2018-08-22T14:03:48.806Z,39.45
2018-08-22T14:06:17.662Z,39.07
2018-08-22T14:08:46.609Z,38.64
2018-08-22T14:11:15.503Z,38.26
2018-08-22T14:13:44.340Z,37.62
2018-08-22T14:16:13.317Z,37.75
2018-08-22T14:18:45.249Z,37.84
2018-08-22T14:21:11.229Z,38.52
2018-08-22T14:23:40.128Z,39.10
2018-08-22T14:26:09.059Z,38.36
2018-08-22T14:28:37.918Z,38.55
2018-08-22T14:31:06.840Z,38.57
2018-08-22T14:33:35.757Z,38.13
2018-08-22T14:36:04.667Z,37.88
2018-08-22T14:38:33.571Z,38.38
2018-08-22T14:41:02.499Z,38.89
2018-08-22T14:43:31.451Z,39.39
2018-08-22T14:46:00.349Z,40.37
2018-08-22T14:48:29.274Z,40.61
2018-08-22T14:50:58.176Z,40.47
2018-08-22T14:53:27.212Z,39.88
2018-08-22T14:55:56.046Z,39.95
2018-08-22T14:58:24.926Z,39.47
2018-08-22T15:00:53.880Z,39.96
2018-08-22T15:03:23.173Z,39.91
2018-08-22T15:05:51.774Z,40.01
2018-08-22T15:08:20.658Z,40.22
2018-08-22T15:10:49.664Z,40.48
2018-08-22T15:13:18.531Z,40.07
2018-08-22T15:15:47.464Z,39.67
2018-08-22T15:18:16.450Z,39.29
2018-08-22T15:20:46.974Z,39.59
2018-08-22T15:23:14.194Z,39.25
2018-08-22T15:25:43.100Z,39.79
2018-08-22T15:28:12.003Z,39.87
2018-08-22T15:30:40.896Z,40.11
2018-08-22T15:33:09.781Z,40.13
2018-08-22T15:35:38.714Z,40.66
2018-08-22T15:38:07.593Z,41.18
2018-08-22T15:40:36.515Z,41.53
2018-08-22T15:43:05.529Z,41.97
2018-08-22T15:45:34.408Z,42.01
2018-08-22T15:48:03.320Z,42.02
2018-08-22T15:50:32.224Z,41.67
2018-08-22T15:53:01.200Z,41.29
2018-08-22T15:55:30.215Z,41.63
2018-08-22T15:58:06.675Z,42.02
2018-08-22T16:00:51.767Z,42.17
2018-08-22T16:03:21.096Z,42.73
2018-08-22T16:05:50.703Z,43.18
2018-08-22T16:08:21.293Z,43.19
2018-08-22T16:10:50.239Z,43.78
2018-08-22T16:13:28.432Z,43.67
2018-08-22T16:16:00.246Z,43.74
2018-08-22T16:18:29.139Z,44.17
2018-08-22T16:20:59.219Z,43.71
2018-08-22T16:23:29.655Z,43.60
2018-08-22T16:25:59.653Z,44.38
2018-08-22T16:28:49.747Z,44.79
2018-08-22T16:31:18.812Z,45.21
2018-08-22T16:33:47.560Z,45.40
2018-08-22T16:36:28.707Z,45.21
2018-08-22T16:38:57.933Z,45.84
2018-08-22T16:41:26.806Z,46.05
2018-08-22T16:43:55.681Z,46.20
2018-08-22T16:46:24.577Z,46.42
2018-08-22T16:48:54.747Z,46.58
2018-08-22T16:51:24.095Z,46.75
2018-08-22T16:54:08.590Z,47.03
2018-08-22T16:56:37.633Z,47.25
2018-08-22T16:59:10.731Z,47.46
2018-08-22T17:01:44.658Z,47.61
2018-08-22T17:04:13.557Z,47.58
2018-08-22T17:06:42.461Z,47.77
2018-08-22T17:09:11.874Z,47.88
2018-08-22T17:11:40.845Z,47.89
2018-08-22T17:14:09.724Z,48.01
2018-08-22T17:16:38.591Z,48.25
2018-08-22T17:19:07.556Z,48.11
2018-08-22T17:21:36.494Z,48.27
2018-08-22T17:24:05.423Z,48.42
2018-08-22T17:26:34.348Z,48.46
2018-08-22T17:29:03.333Z,48.44
2018-08-22T17:31:32.208Z,48.85
2018-08-22T17:34:02.377Z,49.00
2018-08-22T17:36:31.295Z,48.86
2018-08-22T17:39:01.379Z,49.40
2018-08-22T17:41:30.797Z,48.58
2018-08-22T17:44:15.049Z,49.23
2018-08-22T17:46:49.561Z,49.32
2018-08-22T17:49:18.545Z,49.89
2018-08-22T17:52:17.769Z,49.80
2018-08-22T17:54:51.545Z,50.07
2018-08-22T17:57:24.690Z,50.28
2018-08-22T17:59:53.984Z,50.39
2018-08-22T18:02:22.920Z,50.21
2018-08-22T18:05:03.396Z,50.80
2018-08-22T18:07:32.390Z,50.92
2018-08-22T18:10:03.308Z,51.30
2018-08-22T18:12:32.298Z,51.50
2018-08-22T18:15:02.688Z,51.73
2018-08-22T18:17:34.190Z,52.06
2018-08-22T18:20:05.290Z,52.48
2018-08-22T18:22:35.920Z,52.83
2018-08-22T18:25:05.276Z,53.21
2018-08-22T18:27:34.376Z,53.35
2018-08-22T18:30:03.407Z,53.44
2018-08-22T18:32:32.353Z,54.13
2018-08-22T18:35:11.992Z,54.35
2018-08-22T18:37:41.482Z,54.51
2018-08-22T18:40:19.497Z,54.82
2018-08-22T18:43:10.173Z,55.46
2018-08-22T18:46:07.716Z,55.57
2018-08-22T18:48:36.790Z,55.91
2018-08-22T18:51:05.805Z,56.23
2018-08-22T18:53:34.719Z,56.39
2018-08-22T18:56:16.964Z,56.59
2018-08-22T18:58:45.854Z,56.80
2018-08-22T19:01:14.784Z,57.20
2018-08-22T19:03:43.683Z,57.23
2018-08-22T19:06:12.683Z,57.42
2018-08-22T19:08:41.639Z,57.71
2018-08-22T19:11:10.729Z,57.52
2018-08-22T19:13:39.500Z,57.86
2018-08-22T19:16:11.851Z,58.54
2018-08-22T19:18:40.712Z,58.19
2018-08-22T19:21:10.803Z,58.56
2018-08-22T19:23:39.678Z,57.91
2018-08-22T19:26:08.910Z,57.61
2018-08-22T19:28:57.929Z,58.60
2018-08-22T19:31:26.870Z,58.88
2018-08-22T19:33:55.719Z,59.14
2018-08-22T19:36:24.611Z,59.60
2018-08-22T19:38:53.559Z,60.11
2018-08-22T19:41:40.708Z,60.18
2018-08-22T19:44:09.607Z,60.55
2018-08-22T19:46:38.566Z,60.92
2018-08-22T19:49:07.587Z,60.95
2018-08-22T19:51:36.430Z,61.12
2018-08-22T19:54:06.663Z,61.25
2018-08-22T19:56:35.593Z,61.42
2018-08-22T19:59:05.252Z,62.05
2018-08-22T20:01:37.473Z,62.12
2018-08-22T20:04:04.399Z,61.64
2018-08-22T20:06:33.337Z,61.69
2018-08-22T20:09:02.287Z,62.21
2018-08-22T20:11:34.113Z,62.76
2018-08-22T20:14:06.911Z,62.66
2018-08-22T20:16:35.927Z,63.26
2018-08-22T20:19:07.147Z,62.92
2018-08-22T20:21:36.950Z,63.57
2018-08-22T20:24:07.625Z,63.66
2018-08-22T20:26:43.007Z,63.71
2018-08-22T20:29:11.929Z,63.76
2018-08-22T20:31:40.839Z,64.10
2018-08-22T20:34:11.436Z,64.09
2018-08-22T20:36:40.831Z,63.82
2018-08-22T20:39:13.620Z,64.25
2018-08-22T20:41:43.009Z,64.95
2018-08-22T20:44:20.703Z,64.80
2018-08-22T20:46:49.714Z,65.44
2018-08-22T20:49:19.667Z,65.55
2018-08-22T20:51:48.833Z,65.76
2018-08-22T20:54:22.152Z,66.10
2018-08-22T20:57:02.927Z,66.39
2018-08-22T20:59:31.917Z,66.50
2018-08-22T21:02:06.709Z,66.50
2018-08-22T21:04:36.315Z,66.60
2018-08-22T21:07:05.594Z,66.62
2018-08-22T21:09:34.503Z,66.40
2018-08-22T21:12:04.334Z,67.12
2018-08-22T21:14:33.353Z,67.26
2018-08-22T21:17:02.152Z,66.87
2018-08-22T21:19:31.046Z,67.08
2018-08-22T21:21:59.913Z,66.83
2018-08-22T21:24:28.859Z,66.83
2018-08-22T21:26:57.695Z,67.21
2018-08-22T21:29:26.588Z,67.38
2018-08-22T21:31:55.468Z,67.22
2018-08-22T21:34:24.449Z,66.98
2018-08-22T21:36:53.429Z,67.14
2018-08-22T21:39:26.114Z,67.37
2018-08-22T21:41:55.121Z,67.69
2018-08-22T21:44:24.391Z,67.62
2018-08-22T21:47:09.447Z,68.18
2018-08-22T21:49:38.390Z,68.34
2018-08-22T21:52:07.277Z,68.54
2018-08-22T21:54:36.208Z,68.46
2018-08-22T21:57:05.189Z,68.69
2018-08-22T21:59:34.029Z,68.57
2018-08-22T22:02:10.099Z,67.83
2018-08-22T22:04:42.777Z,68.69
2018-08-22T22:07:12.263Z,68.79
2018-08-22T22:09:41.154Z,68.04
2018-08-22T22:12:27.579Z,69.08
2018-08-22T22:14:56.602Z,69.37
2018-08-22T22:17:25.490Z,69.07
2018-08-22T22:19:54.430Z,69.27
2018-08-22T22:22:23.345Z,69.37
2018-08-22T22:25:04.601Z,69.13
2018-08-22T22:27:33.524Z,67.58
2018-08-22T22:30:04.582Z,68.47
2018-08-22T22:32:34.026Z,67.63
2018-08-22T22:35:03.444Z,68.71
2018-08-22T22:37:32.373Z,69.18
2018-08-22T22:40:01.327Z,69.31
2018-08-22T22:42:33.238Z,69.62
2018-08-22T22:45:02.218Z,69.56
2018-08-22T22:47:37.342Z,69.64
2018-08-22T22:50:04.307Z,69.60
2018-08-22T22:52:40.878Z,69.31
2018-08-22T22:55:10.601Z,69.45
2018-08-22T22:57:43.338Z,69.74
2018-08-22T23:00:18.952Z,69.77
2018-08-22T23:03:07.689Z,70.06
2018-08-22T23:05:36.569Z,69.91
2018-08-22T23:08:05.489Z,70.24
2018-08-22T23:10:34.426Z,70.54
2018-08-22T23:13:05.923Z,70.11
2018-08-22T23:15:34.803Z,70.34
2018-08-22T23:18:03.778Z,70.38
2018-08-22T23:20:36.626Z,70.81
2018-08-22T23:23:37.564Z,70.41
2018-08-22T23:26:20.744Z,70.14
2018-08-22T23:28:52.386Z,69.78
2018-08-22T23:31:21.557Z,69.31
2018-08-22T23:33:50.617Z,69.23
2018-08-22T23:36:19.524Z,68.91
2018-08-22T23:38:48.410Z,69.15
2018-08-22T23:41:17.277Z,69.29
2018-08-22T23:43:50.950Z,69.47
2018-08-22T23:46:20.059Z,69.83
2018-08-22T23:48:56.267Z,70.10
2018-08-22T23:51:25.216Z,70.56
2018-08-22T23:53:58.167Z,70.35
2018-08-22T23:56:30.965Z,70.49
2018-08-22T23:59:00.276Z,70.42
